createdAt,value
2022-12-16T00:00:16.208Z,26.03
2022-12-16T00:05:22.180Z,26.97
2022-12-16T00:10:25.013Z,31.30
2022-12-16T00:15:27.925Z,27.03
2022-12-16T00:20:30.880Z,20.83
2022-12-16T00:25:33.788Z,22.67
2022-12-16T00:30:37.195Z,25.10
2022-12-16T00:35:44.487Z,21.53
2022-12-16T00:40:49.065Z,20.00
2022-12-16T00:45:52.260Z,17.87
2022-12-16T00:50:55.827Z,13.43
2022-12-16T00:56:11.166Z,13.47
2022-12-16T01:01:14.745Z,14.27
2022-12-16T01:06:18.742Z,12.57
2022-12-16T01:11:21.801Z,19.43
2022-12-16T01:16:24.769Z,12.63
2022-12-16T01:21:27.715Z,13.63
2022-12-16T01:26:31.905Z,13.57
2022-12-16T01:31:34.816Z,13.07
2022-12-16T01:36:37.784Z,8.47
2022-12-16T01:41:40.685Z,9.07
2022-12-16T01:46:51.216Z,8.10
2022-12-16T01:52:00.266Z,8.83
2022-12-16T01:57:09.870Z,9.60
2022-12-16T02:02:15.015Z,10.33
2022-12-16T02:07:18.119Z,7.60
2022-12-16T02:12:39.971Z,8.27
2022-12-16T02:18:03.756Z,5.97
2022-12-16T02:23:35.463Z,7.60
2022-12-16T02:29:19.267Z,9.32
2022-12-16T02:34:28.153Z,6.33
2022-12-16T02:39:39.121Z,7.20
2022-12-16T02:44:45.547Z,9.80
2022-12-16T02:49:54.344Z,12.33
2022-12-16T02:55:04.843Z,9.00
2022-12-16T03:00:13.249Z,11.90
2022-12-16T03:05:26.606Z,13.80
2022-12-16T03:10:37.071Z,9.17
2022-12-16T03:15:41.557Z,9.53
2022-12-16T03:21:02.908Z,9.23
2022-12-16T03:26:21.748Z,10.37
2022-12-16T03:31:38.879Z,9.67
2022-12-16T03:36:44.093Z,8.27
2022-12-16T03:41:54.509Z,11.67
2022-12-16T03:46:58.006Z,10.70
2022-12-16T03:52:01.104Z,10.10
2022-12-16T03:57:04.405Z,9.63
2022-12-16T04:02:07.512Z,13.20
2022-12-16T04:07:24.611Z,13.50
2022-12-16T04:12:46.092Z,13.43
2022-12-16T04:18:07.203Z,13.67
2022-12-16T04:23:30.644Z,15.53
2022-12-16T04:28:33.873Z,15.80
2022-12-16T04:33:56.096Z,12.40
2022-12-16T04:39:17.156Z,9.67
2022-12-16T04:44:38.362Z,15.33
2022-12-16T04:50:00.210Z,16.70
2022-12-16T04:55:22.508Z,11.20
2022-12-16T05:00:43.835Z,13.33
2022-12-16T05:06:05.489Z,6.20
2022-12-16T05:11:26.697Z,11.85
2022-12-16T05:16:47.916Z,13.17
2022-12-16T05:22:09.100Z,8.20
2022-12-16T05:27:30.405Z,11.97
2022-12-16T05:32:51.584Z,10.45
2022-12-16T05:43:35.262Z,11.20
2022-12-16T05:48:56.603Z,9.38
2022-12-16T05:54:17.835Z,8.40
2022-12-16T05:59:39.268Z,7.07
2022-12-16T06:05:00.308Z,11.57
2022-12-16T06:10:22.443Z,16.52
2022-12-16T06:15:43.658Z,11.30
2022-12-16T06:21:05.287Z,14.23
2022-12-16T06:26:27.019Z,13.50
2022-12-16T06:31:48.393Z,19.10
2022-12-16T06:37:09.786Z,24.30
2022-12-16T06:42:31.852Z,22.70
2022-12-16T06:47:53.113Z,19.92
2022-12-16T06:53:14.384Z,14.95
2022-12-16T06:58:35.664Z,17.83
2022-12-16T07:03:56.996Z,20.15
2022-12-16T07:09:18.087Z,19.33
2022-12-16T07:14:39.162Z,18.57
2022-12-16T07:20:00.353Z,20.90
2022-12-16T07:25:22.123Z,20.80
2022-12-16T07:30:43.591Z,21.13
2022-12-16T07:36:04.784Z,24.67
2022-12-16T07:41:25.957Z,26.90
2022-12-16T07:46:47.073Z,31.37
2022-12-16T07:52:08.309Z,39.07
2022-12-16T07:57:29.814Z,42.20
2022-12-16T08:02:51.330Z,32.73
2022-12-16T08:08:12.761Z,36.13
2022-12-16T08:13:34.687Z,34.63
2022-12-16T08:18:56.135Z,35.45
2022-12-16T08:24:17.740Z,29.03
2022-12-16T08:29:46.130Z,50.97
2022-12-16T08:35:07.446Z,43.03
2022-12-16T08:40:37.344Z,58.50
2022-12-16T08:46:00.300Z,40.87
2022-12-16T08:51:24.786Z,38.27
2022-12-16T08:56:46.093Z,32.33
2022-12-16T09:02:07.503Z,29.97
2022-12-16T09:07:29.295Z,55.03
2022-12-16T09:12:50.490Z,25.73
2022-12-16T09:18:15.834Z,31.03
2022-12-16T09:23:37.181Z,35.63
2022-12-16T09:28:58.593Z,27.60
2022-12-16T09:34:20.255Z,26.77
2022-12-16T09:39:41.455Z,28.23
2022-12-16T09:46:20.531Z,29.30
2022-12-16T09:51:43.121Z,27.10
2022-12-16T09:57:05.611Z,32.93
2022-12-16T10:02:32.326Z,31.30
2022-12-16T10:08:02.236Z,32.30
2022-12-16T10:14:02.039Z,35.70
2022-12-16T10:19:32.539Z,37.33
2022-12-16T10:25:25.039Z,35.63
2022-12-16T10:30:48.607Z,35.92
2022-12-16T10:36:15.200Z,31.70
2022-12-16T10:41:37.003Z,36.53
2022-12-16T10:46:58.762Z,30.65
2022-12-16T10:52:20.995Z,38.08
2022-12-16T10:58:14.974Z,32.60
2022-12-16T11:03:41.575Z,35.80
2022-12-16T11:09:02.872Z,36.33
2022-12-16T11:15:05.404Z,34.50
2022-12-16T11:20:38.774Z,28.43
2022-12-16T11:26:00.067Z,32.08
2022-12-16T11:31:35.401Z,25.10
2022-12-16T11:37:00.131Z,26.87
2022-12-16T11:42:23.325Z,33.40
2022-12-16T11:47:56.720Z,37.03
2022-12-16T11:53:19.778Z,34.10
2022-12-16T11:59:06.541Z,39.67
2022-12-16T12:04:27.889Z,34.40
2022-12-16T12:09:55.900Z,41.28
2022-12-16T12:15:23.598Z,41.30
2022-12-16T12:21:41.214Z,41.53
2022-12-16T12:27:27.715Z,26.17
2022-12-16T12:33:25.832Z,22.93
2022-12-16T12:39:38.325Z,32.53
2022-12-16T12:45:25.949Z,32.60
2022-12-16T12:50:58.915Z,33.50
2022-12-16T12:56:45.554Z,33.10
2022-12-16T13:02:08.507Z,34.53
2022-12-16T13:07:30.687Z,36.43
2022-12-16T13:12:53.674Z,28.97
2022-12-16T13:18:18.400Z,27.73
2022-12-16T13:23:52.858Z,39.67
2022-12-16T13:29:45.426Z,40.43
2022-12-16T13:35:23.780Z,32.77
2022-12-16T13:40:45.736Z,28.33
2022-12-16T13:46:16.130Z,24.05
2022-12-16T13:52:19.978Z,42.03
2022-12-16T13:57:43.853Z,29.90
2022-12-16T14:03:09.520Z,38.23
2022-12-16T14:08:39.172Z,43.53
2022-12-16T14:14:39.253Z,30.87
2022-12-16T14:20:15.149Z,29.33
2022-12-16T14:25:41.943Z,21.83
2022-12-16T14:31:03.766Z,21.50
2022-12-16T14:36:44.716Z,16.50
2022-12-16T14:42:10.478Z,36.77
2022-12-16T14:47:38.888Z,53.37
2022-12-16T14:53:00.468Z,50.67
2022-12-16T14:58:52.784Z,28.25
2022-12-16T15:04:15.037Z,31.20
2022-12-16T15:10:03.197Z,13.57
2022-12-16T15:15:55.053Z,20.20
2022-12-16T15:21:18.872Z,23.13
2022-12-16T15:26:45.383Z,18.23
2022-12-16T15:32:07.054Z,25.53
2022-12-16T15:37:38.806Z,27.23
2022-12-16T15:43:00.459Z,30.77
2022-12-16T15:48:49.641Z,25.23
2022-12-16T15:54:22.661Z,22.37
2022-12-16T15:59:54.098Z,20.23
2022-12-16T16:05:15.447Z,21.47
2022-12-16T16:10:43.669Z,21.60
2022-12-16T16:16:06.031Z,19.10
2022-12-16T16:21:27.310Z,19.63
2022-12-16T16:26:49.072Z,24.33
2022-12-16T16:32:11.693Z,22.90
2022-12-16T16:37:37.580Z,26.47
2022-12-16T16:42:58.798Z,21.50
2022-12-16T16:48:51.187Z,18.97
2022-12-16T16:54:12.781Z,31.57
2022-12-16T16:59:34.035Z,29.38
2022-12-16T17:04:55.015Z,20.10
2022-12-16T17:10:16.104Z,15.40
2022-12-16T17:15:44.772Z,13.90
2022-12-16T17:21:06.533Z,19.67
2022-12-16T17:26:29.605Z,17.02
2022-12-16T17:31:50.924Z,15.07
2022-12-16T17:37:12.078Z,16.40
2022-12-16T17:42:33.331Z,13.70
2022-12-16T17:47:55.186Z,13.63
2022-12-16T17:53:17.944Z,19.65
2022-12-16T17:58:38.955Z,26.20
2022-12-16T18:04:00.267Z,18.90
2022-12-16T18:09:22.053Z,19.37
2022-12-16T18:14:43.183Z,16.73
2022-12-16T18:20:04.995Z,21.53
2022-12-16T18:25:26.171Z,19.08
2022-12-16T18:30:47.939Z,19.90
2022-12-16T18:36:09.077Z,15.73
2022-12-16T18:41:37.309Z,17.30
2022-12-16T18:46:58.465Z,16.57
2022-12-16T18:52:19.947Z,21.47
2022-12-16T18:57:41.142Z,19.05
2022-12-16T19:03:02.336Z,23.47
2022-12-16T19:08:24.208Z,24.83
2022-12-16T19:13:45.437Z,23.88
2022-12-16T19:19:06.683Z,29.93
2022-12-16T19:24:33.089Z,33.05
2022-12-16T19:29:54.350Z,30.97
2022-12-16T19:35:17.918Z,26.83
2022-12-16T19:40:39.234Z,32.15
2022-12-16T19:46:00.528Z,35.70
2022-12-16T19:51:22.810Z,33.93
2022-12-16T19:56:44.253Z,38.93
2022-12-16T20:02:05.533Z,41.50
2022-12-16T20:07:27.543Z,40.30
2022-12-16T20:12:48.859Z,44.95
2022-12-16T20:18:09.995Z,50.17
2022-12-16T20:23:31.229Z,41.40
2022-12-16T20:28:52.549Z,48.17
2022-12-16T20:34:17.988Z,45.70
2022-12-16T20:39:39.153Z,49.43
2022-12-16T20:45:00.478Z,36.03
2022-12-16T20:50:22.729Z,51.23
2022-12-16T20:55:43.908Z,52.23
2022-12-16T21:01:11.118Z,53.83
2022-12-16T21:06:32.397Z,66.80
2022-12-16T21:11:53.998Z,59.03
2022-12-16T21:17:17.667Z,56.13
2022-12-16T21:22:38.944Z,57.40
2022-12-16T21:28:00.217Z,70.57
2022-12-16T21:33:22.039Z,51.63
2022-12-16T21:38:50.734Z,66.20
2022-12-16T21:44:13.046Z,72.23
2022-12-16T21:49:34.228Z,66.80
2022-12-16T21:54:56.073Z,78.10
2022-12-16T22:00:17.439Z,77.57
2022-12-16T22:05:38.715Z,72.23
2022-12-16T22:11:01.062Z,87.87
2022-12-16T22:16:22.858Z,80.53
2022-12-16T22:21:44.480Z,67.80
2022-12-16T22:27:05.727Z,78.60
2022-12-16T22:32:27.545Z,77.57
2022-12-16T22:37:49.229Z,71.27
2022-12-16T22:43:10.559Z,88.00
2022-12-16T22:48:31.747Z,71.20
2022-12-16T22:53:52.963Z,64.40
2022-12-16T22:59:14.784Z,69.78
2022-12-16T23:04:36.064Z,73.83
2022-12-16T23:09:57.765Z,69.67
2022-12-16T23:15:19.481Z,54.70
2022-12-16T23:20:40.736Z,68.30
2022-12-16T23:26:02.489Z,71.17
2022-12-16T23:31:23.843Z,75.22
2022-12-16T23:36:46.180Z,76.17
2022-12-16T23:42:07.305Z,81.63
2022-12-16T23:47:28.419Z,77.47
2022-12-16T23:52:49.570Z,72.90
2022-12-16T23:58:23.748Z,72.10
